KTDZ/TDZ METAR and TAF weather

Enter ICAO airport designator
Station Type Date Time Source
KTDZ METAR 2020/12/06 01:53 UTC NOAA

KTDZ 060153Z AUTO 33004KT 10SM OVC032 00/M05 A3013 RMK AO2 SLP210 T00001050


Station Type Date Time Source
KTDZ Decoded METAR 2020/12/06 01:53 UTC NOAA

TOLEDO METCALF FIELD, OH, United States (KTDZ) 41-34N 83-29W 189M
Dec 05, 2020 - 08:53 PM EST / 2020.12.06 0153 UTC
Wind: from the NNW (330 degrees) at 5 MPH (4 KT):0
Visibility: 10 mile(s):0
Sky conditions: overcast
Temperature: 32.0 F (0.0 C)
Windchill: 26 F (-3 C):1
Dew Point: 23.0 F (-5.0 C)
Relative Humidity: 69%
Pressure (altimeter): 30.13 in. Hg (1020 hPa)
ob: KTDZ 060153Z AUTO 33004KT 10SM OVC032 00/M05 A3013 RMK AO2 SLP210 T00001050
cycle: 2

Station Type Date Time Source
KTDZ TAF UTC NOAA

Error!

Example: see airport list